Decoded Metar for KGCN (GRAND CANYON in AZ, USA) (IATA:GCN) | Meteo·Mobile Aviation Weather
aviador You're here:

KGCN Decoded Metar

GRAND CANYON in AZ, USA
Report Time2018-10-20 06:54:00
UTC Time2018-10-20 07:20:11
Flight Rules vfr VFR
Wind070° at 12 kt
W.Decomp.*RWY 03: 10.8 kt HW 5.3 kt RCW
W.Rank070° ranks 7
Current wind is above 070° avg. (6.1)
Visibility9999 m
Phenomena:N/A
Clouds:N/A
Expected CloudBase > 2,800 ft AGL from Temp-Dew spread
CeilingNone
Temp08°C (ISA +6)
Dew Point01°C (62% RH)
AAT1.9°C
QNH1027 hPa
Density Alt6,969 ft
Elevation6,614 ft
Report Wrong Elevation
Raw Report
KGCN 200654Z AUTO 07012KT 10SM CLR 08/01 A3034 RMK AO2 SLP225
T00780006 401281017=

Extra information for KGCN:More info

Metar Taf Metar & Taf Last 4 Metars F.Rules Stats Wind Profile Meteogram Temp Stats Airport Information Weather charts Add Link Nearby VenuesMetar ALERT Operation Metar Decoded Social comments

AIRNAV info for KGCN